Create Custom Reports and Graphics: Custom Report

Stanford Met Tower

Current Conditions

8/14/20 6:15 PM (-07:00)
Updated Every 15 Minutes
Temp 99.6 °F   8.3
RH 23 %   6
Dew Pt 55.0 °F   1.2
Wind Dir NNW | 331 °
Wind Spd 6.8 mph   1.4
Wind Gust 13.4 mph   0.9
Solar Rad 303 W/m2   74
Daily Min Temp 65.8 °F   11.9
Daily Max Temp 101.6 °F   6.6
Daily Max Wind 16.3 mph   1.6
Daily Rain 0.00 In
Min Temp Yest 54.0 °F
Max Temp Yest 95.0 °F
Max Wind Yest 17.9 mph
Rain Yest 0.00 In
Seasonal Rainfall 0.00 In

Last 48 Hours

Stanford Met Tower

Hourly Data | America/Los_Angeles
as of 8/14/20 6:35 PM PDT
Date & Time Temp (°F) Temp Inversion (°F) RH (%) Dew Pt (°F) Wind Dir (°) Wind Spd (mph) Wind Gust (mph) Latest Rain (In) ETo Hr (in) ETo 2pm (In) Daily Rain (In) Daily Min Temp (°F) Daily Max Temp (°F)
8/14/20 - 1800 99.7 -2.3 23 55.4 NNW | 342 7.4 16.3 0.00 0.006 0.18 0.00 65.8 101.6
8/14/20 - 1700 100.3 -3.7 20 52.3 N | 353 6.8 13.6 0.00 0.017 0.18 0.00 65.8 101.6
8/14/20 - 1600 100.3 -5.5 23 55.5 N | 350 7.6 13.9 0.00 0.022 0.18 0.00 65.8 100.7
8/14/20 - 1500 99.0 -6.3 21 52.8 NNW | 343 6.2 13.2 0.00 0.025 0.18 0.00 65.8 100.4
8/14/20 - 1400 98.1 -7.3 19 49.5 NNW | 342 4.3 8.5 0.00 0.026 0.18 0.00 65.8 99.2
8/14/20 - 1300 95.3 -7.5 24 52.5 N | 354 3.1 6.9 0.00 0.026 0.18 0.00 65.8 96.1
8/14/20 - 1200 90.2 -7.5 39 61.6 NNE | 24 2.9 6.3 0.00 0.018 0.18 0.00 65.8 91.7
8/14/20 - 1100 87.5 -7.8 42 61.6 N | 358 2.4 5.7 0.00 0.017 0.18 0.00 65.8 87.5
8/14/20 - 1000 79.2 -4.4 57 62.7 NNW | 342 1.7 5.0 0.00 0.010 0.18 0.00 65.8 79.8
8/14/20 - 0900 75.5 -2.8 65 62.9 NW | 323 1.2 3.7 0.00 0.006 0.18 0.00 65.8 75.7
8/14/20 - 0800 71.6 -0.4 65 59.1 NW | 305 1.3 3.7 0.00 0.001 0.18 0.00 65.8 72.2
8/14/20 - 0700 68.9 1.0 67 57.4 SW | 217 1.4 4.1 0.00 0.000 0.18 0.00 65.8 70.4
8/14/20 - 0600 67.4 1.1 68 56.4 SSW | 204 0.7 3.0 0.00 0.000 0.18 0.00 65.8 70.4
8/14/20 - 0500 67.8 1.6 72 58.6 SSW | 204 1.0 3.2 0.00 0.000 0.18 0.00 65.8 70.4
8/14/20 - 0400 67.3 1.0 75 59.0 WSW | 256 2.0 5.8 0.00 0.000 0.18 0.00 65.8 70.4
8/14/20 - 0300 66.9 1.8 76 59.1 SSW | 213 2.7 6.6 0.00 0.000 0.18 0.00 66.0 70.4
8/14/20 - 0200 67.4 2.2 80 61.0 WSW | 244 1.8 4.0 0.00 0.000 0.18 0.00 67.3 70.4
8/14/20 - 0100 69.7 1.5 76 61.8 SSW | 210 1.9 4.7 0.00 0.000 0.18 0.00 54.0 95.0
8/14/20 - 0000 69.0 1.4 82 63.4 WNW | 295 2.0 4.3 0.00 0.000 0.18 0.00 54.0 95.0
8/13/20 - 2300 70.8 2.2 75 62.5 NNE | 20 1.5 3.1 0.00 0.000 0.18 0.00 54.0 95.0
8/13/20 - 2200 72.3 1.8 70 61.8 NE | 47 1.6 5.1 0.00 0.000 0.18 0.00 54.0 95.0
8/13/20 - 2100 75.7 -0.4 62 62.0 ENE | 77 4.1 7.2 0.00 0.000 0.18 0.00 54.0 95.0
8/13/20 - 2000 80.1 -0.9 54 61.8 E | 86 3.9 8.6 0.00 0.000 0.18 0.00 54.0 95.0
8/13/20 - 1900 86.1 -2.8 45 62.2 WSW | 249 5.9 17.7 0.00 0.005 0.18 0.00 54.0 95.0
8/13/20 - 1800 92.5 -2.6 24 50.5 W | 268 6.0 17.9 0.00 0.011 0.18 0.00 54.0 95.0
8/13/20 - 1700 90.2 -5.4 40 62.4 NNW | 336 4.7 14.4 0.00 0.015 0.18 0.00 54.0 95.0
8/13/20 - 1600 93.2 -7.3 31 57.8 N | 360 5.0 9.8 0.00 0.021 0.18 0.00 54.0 93.4
8/13/20 - 1500 90.7 -9.5 35 59.0 N | 7 4.5 8.4 0.00 0.022 0.18 0.00 54.0 91.6
8/13/20 - 1400 87.4 -8.4 41 60.6 N | 5 5.0 10.5 0.00 0.023 0.18 0.00 54.0 87.9
8/13/20 - 1300 85.1 -6.0 47 62.8 N | 6 4.3 9.5 0.00 0.021 0.18 0.00 54.0 87.3
8/13/20 - 1200 86.2 -8.6 48 64.0 ENE | 64 2.7 6.9 0.00 0.023 0.18 0.00 54.0 87.3
8/13/20 - 1100 80.2 -3.7 50 59.8 NE | 46 2.8 6.6 0.00 0.017 0.18 0.00 54.0 80.7
8/13/20 - 1000 73.7 -7.2 64 60.8 NNE | 13 1.6 4.7 0.00 0.013 0.18 0.00 54.0 74.2
8/13/20 - 0900 67.8 -4.4 75 59.8 NNE | 19 1.3 3.7 0.00 0.007 0.18 0.00 54.0 69.0
8/13/20 - 0800 63.2 -0.8 85 58.6 SSW | 209 1.8 4.5 0.00 0.002 0.18 0.00 54.0 63.3
8/13/20 - 0700 55.7 1.1 96 54.6 SSW | 210 3.4 6.2 0.00 0.000 0.18 0.00 54.0 58.9
8/13/20 - 0600 54.6 1.5 96 53.5 SSW | 197 2.5 5.8 0.00 0.000 0.18 0.00 54.5 58.9
8/13/20 - 0500 55.4 1.7 97 54.4 WSW | 245 2.2 3.7 0.00 0.000 0.18 0.00 54.9 58.9
8/13/20 - 0400 55.4 1.4 96 54.4 SW | 219 2.7 5.5 0.00 0.000 0.18 0.00 55.1 58.9
8/13/20 - 0300 56.6 2.7 96 55.4 WSW | 253 1.5 2.7 0.00 0.000 0.18 0.00 56.2 58.9
8/13/20 - 0200 56.6 2.0 94 55.0 W | 260 1.2 2.4 0.00 0.000 0.18 0.00 56.6 58.9
8/13/20 - 0100 58.4 1.3 94 56.8 N | 350 0.5 2.3 0.00 0.000 0.18 0.00 58.3 80.1
8/13/20 - 0000 59.1 2.1 94 57.3 NE | 51 0.3 1.4 0.00 0.000 0.18 0.00 59.1 80.1
8/12/20 - 2300 60.8 2.2 90 57.8 E | 96 0.7 2.2 0.00 0.000 0.18 0.00 59.6 80.1
8/12/20 - 2200 63.8 1.1 82 58.1 NNE | 17 2.3 5.0 0.00 0.000 0.18 0.00 59.6 80.1
8/12/20 - 2100 66.2 -0.5 79 59.6 ENE | 65 3.2 5.6 0.00 0.000 0.18 0.00 59.6 80.1
8/12/20 - 2000 69.7 -1.3 73 60.6 NNE | 31 3.3 5.1 0.00 0.000 0.18 0.00 59.6 80.1
8/12/20 - 1900 73.2 -4.0 64 60.5 NNE | 25 4.1 7.3 0.00 0.005 0.18 0.00 59.6 80.1
8/12/20 - 1800 74.2 -6.4 60 59.2 NNE | 16 5.6 10.4 0.00 0.010 0.18 0.00 59.6 80.1
Max 100.3 2.7 97 64.0 - 7.6 17.9 0.00 0.026 0.18 0.00 67.3 101.6
Avg 75.4 -2.1 62 58.5 - 3.0 6.9 0.00 0.008 0.18 - - -
Min 54.6 -9.5 19 49.5 - 0.3 1.4 0.00 0.000 0.18 0.00 54.0 58.9
Total - - - - - - - 0.00 0.369 - - - -
Calm: 0.5%
Calm: 0.0%